createdAt,value
2022-07-28T00:00:30.658Z,2.70
2022-07-28T00:03:13.028Z,2.50
2022-07-28T00:05:44.818Z,2.90
2022-07-28T00:08:16.691Z,3.70
2022-07-28T00:10:48.343Z,2.90
2022-07-28T00:13:19.994Z,3.10
2022-07-28T00:15:52.064Z,4.00
2022-07-28T00:18:24.002Z,3.70
2022-07-28T00:20:57.596Z,3.10
2022-07-28T00:23:39.264Z,3.40
2022-07-28T00:26:12.615Z,3.50
2022-07-28T00:28:44.616Z,4.60
2022-07-28T00:31:16.623Z,4.10
2022-07-28T00:33:48.346Z,2.60
2022-07-28T00:36:20.346Z,4.60
2022-07-28T00:38:58.041Z,3.50
2022-07-28T00:41:29.718Z,3.90
2022-07-28T00:44:01.505Z,3.70
2022-07-28T00:46:33.773Z,3.10
2022-07-28T00:49:06.084Z,3.40
2022-07-28T00:51:38.148Z,3.60
2022-07-28T00:54:11.181Z,4.30
2022-07-28T00:56:43.341Z,3.40
2022-07-28T00:59:15.223Z,3.80
2022-07-28T01:01:53.474Z,4.20
2022-07-28T01:04:26.852Z,4.00
2022-07-28T01:07:20.098Z,3.70
2022-07-28T01:12:38.605Z,3.90
2022-07-28T01:15:21.110Z,3.30
2022-07-28T01:18:01.953Z,4.10
2022-07-28T01:20:38.282Z,4.10
2022-07-28T01:23:24.800Z,3.70
2022-07-28T01:26:15.256Z,3.80
2022-07-28T01:29:03.266Z,3.70
2022-07-28T01:31:42.209Z,4.30
2022-07-28T01:34:19.963Z,2.70
2022-07-28T01:36:58.124Z,3.30
2022-07-28T01:39:33.343Z,3.30
2022-07-28T01:42:07.975Z,3.20
2022-07-28T01:44:44.831Z,3.20
2022-07-28T01:47:18.137Z,3.60
2022-07-28T01:49:53.471Z,3.50
2022-07-28T01:52:26.682Z,4.00
2022-07-28T01:55:00.518Z,3.10
2022-07-28T01:57:34.358Z,3.10
2022-07-28T02:00:11.583Z,3.80
2022-07-28T02:02:49.889Z,4.20
2022-07-28T02:05:26.509Z,2.70
2022-07-28T02:08:01.480Z,3.80
2022-07-28T02:10:36.539Z,3.60
2022-07-28T02:13:10.357Z,3.60
2022-07-28T02:15:43.640Z,4.00
2022-07-28T02:18:16.133Z,2.90
2022-07-28T02:20:48.338Z,3.60
2022-07-28T02:23:21.186Z,3.20
2022-07-28T02:25:54.129Z,2.90
2022-07-28T02:28:27.848Z,2.80
2022-07-28T02:31:02.726Z,3.50
2022-07-28T02:33:58.534Z,3.30
2022-07-28T02:36:32.823Z,3.50
2022-07-28T02:39:09.619Z,3.60
2022-07-28T02:41:43.178Z,3.20
2022-07-28T02:44:18.546Z,3.90
2022-07-28T02:46:53.566Z,4.60
2022-07-28T02:49:29.596Z,3.90
2022-07-28T02:52:03.273Z,4.00
2022-07-28T02:54:36.389Z,3.20
2022-07-28T02:57:10.285Z,4.20
2022-07-28T02:59:44.540Z,3.70
2022-07-28T03:02:19.619Z,3.30
2022-07-28T03:04:58.937Z,4.10
2022-07-28T03:07:33.082Z,3.40
2022-07-28T03:10:06.936Z,4.00
2022-07-28T03:12:38.651Z,4.20
2022-07-28T03:15:12.116Z,3.70
2022-07-28T03:17:44.002Z,4.20
2022-07-28T03:20:16.054Z,4.80
2022-07-28T03:22:47.961Z,2.60
2022-07-28T03:25:25.473Z,4.10
2022-07-28T03:28:01.383Z,4.20
2022-07-28T03:30:39.983Z,4.50
2022-07-28T03:33:12.668Z,4.20
2022-07-28T03:35:49.620Z,4.10
2022-07-28T03:38:24.928Z,4.30
2022-07-28T03:40:58.863Z,4.10
2022-07-28T03:43:32.474Z,3.90
2022-07-28T03:46:05.186Z,4.60
2022-07-28T03:48:38.484Z,4.40
2022-07-28T03:51:10.355Z,3.90
2022-07-28T03:53:44.151Z,5.10
2022-07-28T03:56:16.356Z,4.60
2022-07-28T03:58:48.192Z,5.20
2022-07-28T04:01:21.121Z,4.10
2022-07-28T04:03:52.984Z,4.80
2022-07-28T04:06:24.695Z,5.50
2022-07-28T04:08:56.465Z,4.40
2022-07-28T04:11:28.694Z,4.30
2022-07-28T04:14:00.675Z,3.80
2022-07-28T04:16:32.611Z,4.00
2022-07-28T04:19:04.734Z,3.30
2022-07-28T04:21:37.252Z,3.80
2022-07-28T04:24:12.281Z,4.80
2022-07-28T04:26:44.342Z,4.20
2022-07-28T04:29:16.378Z,4.40
2022-07-28T04:31:56.406Z,4.60
2022-07-28T04:34:28.659Z,3.90
2022-07-28T04:37:00.434Z,4.20
2022-07-28T04:39:32.186Z,3.10
2022-07-28T04:42:04.042Z,4.40
2022-07-28T04:44:37.157Z,3.80
2022-07-28T04:47:09.148Z,4.00
2022-07-28T04:49:40.921Z,4.00
2022-07-28T04:52:14.023Z,5.90
2022-07-28T04:57:16.250Z,3.40
2022-07-28T04:59:48.770Z,3.60
2022-07-28T05:02:23.443Z,4.70
2022-07-28T05:04:55.233Z,3.80
2022-07-28T05:07:26.954Z,3.50
2022-07-28T05:09:58.870Z,3.40
2022-07-28T05:12:30.659Z,3.80
2022-07-28T05:15:02.302Z,3.30
2022-07-28T05:17:34.096Z,3.20
2022-07-28T05:20:08.396Z,3.50
2022-07-28T05:22:47.858Z,4.10
2022-07-28T05:25:22.049Z,2.90
2022-07-28T05:27:54.693Z,3.50
2022-07-28T05:30:27.897Z,2.60
2022-07-28T05:33:01.978Z,2.50
2022-07-28T05:35:34.092Z,3.70
2022-07-28T05:38:10.484Z,3.20
2022-07-28T05:40:42.822Z,3.30
2022-07-28T05:43:14.550Z,2.80
2022-07-28T05:45:46.637Z,3.10
2022-07-28T05:48:21.103Z,3.60
2022-07-28T05:50:54.451Z,3.00
2022-07-28T05:53:26.994Z,3.30
2022-07-28T05:56:01.322Z,2.70
2022-07-28T05:58:33.663Z,2.80
2022-07-28T06:01:06.492Z,3.50
2022-07-28T06:03:42.045Z,2.80
2022-07-28T06:06:16.847Z,2.70
2022-07-28T06:08:49.769Z,2.40
2022-07-28T06:11:22.551Z,2.40
2022-07-28T06:13:55.342Z,2.30
2022-07-28T06:16:27.108Z,2.50
2022-07-28T06:18:59.195Z,2.50
2022-07-28T06:21:33.031Z,2.20
2022-07-28T06:24:04.977Z,2.50
2022-07-28T06:26:43.641Z,1.90
2022-07-28T06:29:15.836Z,2.60
2022-07-28T06:31:47.605Z,2.10
2022-07-28T06:34:19.762Z,2.10
2022-07-28T06:36:54.733Z,2.20
2022-07-28T06:39:26.586Z,2.10
2022-07-28T06:41:58.396Z,2.30
2022-07-28T06:44:54.939Z,2.40
2022-07-28T06:47:22.263Z,2.30
2022-07-28T06:49:54.170Z,2.20
2022-07-28T06:52:25.966Z,3.80
2022-07-28T06:54:58.498Z,2.00
2022-07-28T06:57:33.404Z,2.80
2022-07-28T07:00:11.179Z,1.80
2022-07-28T07:02:43.856Z,2.10
2022-07-28T07:05:16.789Z,1.80
2022-07-28T07:10:18.773Z,2.30
2022-07-28T07:12:50.523Z,1.40
2022-07-28T07:15:22.344Z,2.10
2022-07-28T07:17:54.599Z,1.90
2022-07-28T07:20:26.541Z,2.00
2022-07-28T07:22:58.320Z,2.20
2022-07-28T07:25:30.101Z,2.10
2022-07-28T07:28:01.956Z,2.60
2022-07-28T07:30:34.290Z,2.00
2022-07-28T07:33:07.023Z,2.00
2022-07-28T07:35:42.222Z,1.70
2022-07-28T07:38:13.995Z,1.90
2022-07-28T07:40:46.070Z,2.10
2022-07-28T07:43:18.609Z,2.50
2022-07-28T07:45:50.543Z,1.70
2022-07-28T07:48:22.377Z,2.20
2022-07-28T07:50:54.590Z,1.70
2022-07-28T07:53:26.442Z,1.90
2022-07-28T07:55:58.416Z,2.00
2022-07-28T07:58:30.265Z,2.00
2022-07-28T08:01:02.100Z,1.90
2022-07-28T08:03:35.404Z,2.30
2022-07-28T08:06:07.696Z,1.70
2022-07-28T08:08:46.458Z,1.80
2022-07-28T08:11:22.160Z,2.10
2022-07-28T08:13:54.147Z,1.60
2022-07-28T08:16:25.888Z,3.60
2022-07-28T08:18:58.586Z,2.10
2022-07-28T08:21:30.993Z,2.40
2022-07-28T08:24:03.921Z,2.50
2022-07-28T08:26:37.123Z,2.70
2022-07-28T08:29:09.469Z,3.40
2022-07-28T08:31:41.321Z,2.00
2022-07-28T08:34:13.512Z,2.20
2022-07-28T08:37:06.408Z,2.40
2022-07-28T08:39:38.766Z,2.10
2022-07-28T08:42:16.687Z,2.10
2022-07-28T08:44:55.123Z,1.60
2022-07-28T08:47:40.424Z,1.60
2022-07-28T08:50:23.241Z,1.90
2022-07-28T08:52:56.427Z,2.30
2022-07-28T08:55:32.751Z,1.70
2022-07-28T08:58:06.177Z,1.90
2022-07-28T09:00:38.069Z,1.80
2022-07-28T09:03:12.340Z,1.90
2022-07-28T09:05:46.012Z,1.60
2022-07-28T09:08:20.474Z,2.20
2022-07-28T09:10:52.844Z,1.90
2022-07-28T09:13:24.707Z,1.50
2022-07-28T09:15:56.656Z,2.30
2022-07-28T09:18:28.800Z,1.80
2022-07-28T09:21:00.588Z,2.30
2022-07-28T09:23:45.421Z,2.20
2022-07-28T09:26:18.353Z,3.00
2022-07-28T09:28:53.573Z,1.70
2022-07-28T09:31:27.308Z,2.00
2022-07-28T09:34:04.245Z,1.90
2022-07-28T09:36:42.702Z,1.70
2022-07-28T09:39:32.612Z,1.90
2022-07-28T09:42:04.708Z,1.80
2022-07-28T09:44:36.967Z,2.00
2022-07-28T09:47:25.140Z,1.90
2022-07-28T09:49:57.141Z,2.30
2022-07-28T09:52:33.095Z,2.30
2022-07-28T09:55:07.059Z,1.90
2022-07-28T09:57:42.656Z,1.70
2022-07-28T10:00:31.200Z,1.90
2022-07-28T10:03:03.620Z,2.00
2022-07-28T10:05:43.497Z,2.10
2022-07-28T10:08:15.784Z,1.80
2022-07-28T10:11:02.178Z,1.50
2022-07-28T10:13:34.031Z,1.60
2022-07-28T10:16:12.748Z,1.70
2022-07-28T10:18:45.116Z,1.60
2022-07-28T10:21:19.247Z,1.60
2022-07-28T10:23:52.659Z,1.80
2022-07-28T10:26:32.171Z,2.90
2022-07-28T10:29:08.253Z,2.10
2022-07-28T10:31:46.436Z,2.00
2022-07-28T10:34:24.647Z,1.50
2022-07-28T10:36:58.038Z,1.60
2022-07-28T10:39:34.122Z,2.40
2022-07-28T10:42:09.037Z,1.30
2022-07-28T10:44:41.640Z,2.10
2022-07-28T10:49:51.671Z,2.00
2022-07-28T10:52:46.671Z,1.50
2022-07-28T10:55:24.442Z,2.30
2022-07-28T10:58:13.302Z,3.10
2022-07-28T11:00:56.585Z,1.40
2022-07-28T11:03:43.120Z,2.20
2022-07-28T11:06:30.182Z,1.70
2022-07-28T11:09:21.290Z,2.30
2022-07-28T11:11:55.499Z,1.80
2022-07-28T11:14:39.405Z,1.40
2022-07-28T11:17:24.296Z,2.20
2022-07-28T11:22:55.294Z,2.10
2022-07-28T11:25:28.295Z,1.70
2022-07-28T11:28:07.098Z,1.70
2022-07-28T11:30:58.054Z,1.80
2022-07-28T11:33:57.913Z,1.40
2022-07-28T11:37:02.263Z,1.90
2022-07-28T11:39:43.309Z,2.10
2022-07-28T11:42:29.846Z,1.60
2022-07-28T11:45:35.929Z,1.60
2022-07-28T11:48:17.680Z,1.60
2022-07-28T11:51:11.768Z,2.20
2022-07-28T11:53:46.236Z,2.10
2022-07-28T11:56:23.710Z,2.40
2022-07-28T11:59:01.212Z,1.70
2022-07-28T12:01:38.405Z,1.50
2022-07-28T12:04:14.731Z,1.50
2022-07-28T12:06:49.561Z,1.60
2022-07-28T12:09:41.931Z,1.40
2022-07-28T12:12:14.374Z,1.80
2022-07-28T12:14:47.393Z,1.60
2022-07-28T12:17:19.509Z,1.70
2022-07-28T12:19:52.893Z,1.40
2022-07-28T12:22:26.081Z,3.00
2022-07-28T12:25:01.032Z,2.00
2022-07-28T12:27:34.974Z,1.90
2022-07-28T12:30:12.956Z,1.80
2022-07-28T12:32:44.803Z,1.50
2022-07-28T12:35:17.389Z,2.20
2022-07-28T12:40:27.614Z,1.60
2022-07-28T12:42:59.685Z,2.60
2022-07-28T12:45:33.455Z,2.10
2022-07-28T12:48:10.181Z,2.00
2022-07-28T12:50:42.670Z,1.70
2022-07-28T12:55:45.830Z,1.60
2022-07-28T13:00:59.640Z,1.70
2022-07-28T13:03:33.874Z,1.40
2022-07-28T13:06:13.417Z,1.60
2022-07-28T13:08:46.653Z,1.70
2022-07-28T13:14:11.035Z,2.10
2022-07-28T13:16:44.013Z,1.80
2022-07-28T13:19:24.872Z,1.60
2022-07-28T13:22:00.752Z,2.30
2022-07-28T13:24:34.782Z,2.50
2022-07-28T13:27:08.825Z,1.80
2022-07-28T13:29:40.618Z,1.80
2022-07-28T13:32:12.831Z,2.10
2022-07-28T13:37:15.780Z,2.60
2022-07-28T13:39:53.705Z,1.80
2022-07-28T13:42:26.125Z,1.70
2022-07-28T13:44:57.921Z,1.80
2022-07-28T13:47:35.467Z,2.20
2022-07-28T13:50:12.080Z,2.30
2022-07-28T13:52:43.894Z,1.60
2022-07-28T13:55:20.907Z,1.50
2022-07-28T13:57:55.060Z,1.40
2022-07-28T14:00:28.810Z,1.60
2022-07-28T14:03:01.433Z,2.00
2022-07-28T14:05:33.838Z,1.70
2022-07-28T14:08:06.654Z,1.50
2022-07-28T14:10:38.919Z,2.90
2022-07-28T14:13:10.606Z,2.00
2022-07-28T14:15:42.708Z,2.00
2022-07-28T14:18:15.170Z,2.20
2022-07-28T14:20:47.449Z,3.20
2022-07-28T14:23:19.368Z,1.80
2022-07-28T14:25:51.140Z,2.00
2022-07-28T14:28:23.477Z,1.70
2022-07-28T14:30:55.382Z,2.60
2022-07-28T14:33:29.427Z,2.10
2022-07-28T14:36:01.406Z,1.90
2022-07-28T14:38:52.307Z,2.20
2022-07-28T14:41:25.995Z,1.90
2022-07-28T14:43:59.141Z,2.30
2022-07-28T14:46:30.970Z,1.90
2022-07-28T14:49:03.336Z,2.00
2022-07-28T14:51:39.350Z,1.80
2022-07-28T14:54:15.232Z,1.50
2022-07-28T14:56:47.320Z,2.60
2022-07-28T14:59:19.253Z,1.50
2022-07-28T15:01:51.115Z,1.60
2022-07-28T15:04:23.273Z,1.80
2022-07-28T15:06:55.418Z,1.90
2022-07-28T15:09:27.434Z,1.90
2022-07-28T15:11:59.196Z,1.90
2022-07-28T15:14:31.156Z,2.20
2022-07-28T15:19:36.160Z,2.90
2022-07-28T15:22:09.416Z,1.90
2022-07-28T15:24:42.232Z,2.00
2022-07-28T15:27:17.818Z,1.60
2022-07-28T15:29:52.260Z,1.50
2022-07-28T15:32:28.200Z,2.10
2022-07-28T15:35:00.711Z,2.10
2022-07-28T15:40:03.431Z,1.50
2022-07-28T15:42:36.639Z,2.00
2022-07-28T15:45:10.551Z,1.70
2022-07-28T15:47:42.285Z,1.70
2022-07-28T15:50:14.482Z,1.90
2022-07-28T15:52:46.724Z,1.80
2022-07-28T15:55:18.599Z,1.60
2022-07-28T15:57:50.576Z,2.30
2022-07-28T16:00:22.697Z,1.70
2022-07-28T16:05:25.891Z,1.80
2022-07-28T16:07:58.009Z,1.60
2022-07-28T16:10:29.702Z,2.70
2022-07-28T16:13:01.856Z,2.40
2022-07-28T16:15:33.991Z,3.00
2022-07-28T16:18:06.163Z,1.80
2022-07-28T16:20:38.665Z,1.60
2022-07-28T16:23:11.040Z,1.60
2022-07-28T16:25:45.059Z,1.60
2022-07-28T16:28:17.146Z,2.00
2022-07-28T16:30:49.525Z,2.10
2022-07-28T16:33:24.299Z,2.20
2022-07-28T16:35:56.073Z,2.10
2022-07-28T16:38:27.847Z,2.20
2022-07-28T16:40:59.486Z,1.50
2022-07-28T16:43:32.204Z,1.60
2022-07-28T16:46:03.950Z,2.00
2022-07-28T16:48:35.788Z,1.20
2022-07-28T16:51:08.174Z,1.60
2022-07-28T16:53:41.110Z,1.60
2022-07-28T16:56:17.473Z,1.60
2022-07-28T16:58:49.778Z,1.50
2022-07-28T17:01:21.593Z,1.60
2022-07-28T17:03:53.285Z,1.60
2022-07-28T17:06:25.111Z,2.00
2022-07-28T17:08:56.860Z,1.60
2022-07-28T17:11:28.881Z,1.60
2022-07-28T17:14:00.616Z,1.50
2022-07-28T17:16:33.026Z,1.80
2022-07-28T17:19:05.237Z,2.10
2022-07-28T17:21:37.480Z,2.70
2022-07-28T17:24:12.296Z,1.90
2022-07-28T17:27:35.363Z,1.70
2022-07-28T17:29:37.140Z,1.90
2022-07-28T17:32:10.264Z,1.80
2022-07-28T17:34:42.207Z,1.60
2022-07-28T17:37:14.029Z,2.30
2022-07-28T17:39:46.038Z,1.50
2022-07-28T17:42:17.772Z,1.80
2022-07-28T17:44:51.597Z,1.90
2022-07-28T17:47:24.442Z,2.50
2022-07-28T17:50:13.024Z,1.90
2022-07-28T17:52:45.324Z,2.30
2022-07-28T17:55:55.843Z,2.20
2022-07-28T17:58:32.176Z,2.60
2022-07-28T18:01:12.117Z,3.30
2022-07-28T18:03:59.044Z,2.60
2022-07-28T18:06:35.423Z,1.80
2022-07-28T18:09:10.566Z,1.90
2022-07-28T18:11:56.784Z,1.80
2022-07-28T18:14:31.502Z,2.00
2022-07-28T18:17:03.703Z,2.30
2022-07-28T18:19:51.308Z,2.20
2022-07-28T18:22:23.050Z,2.20
2022-07-28T18:24:56.661Z,1.60
2022-07-28T18:27:29.305Z,2.10
2022-07-28T18:30:01.153Z,1.90
2022-07-28T18:32:33.031Z,2.20
2022-07-28T18:35:04.796Z,2.80
2022-07-28T18:37:36.466Z,2.20
2022-07-28T18:40:10.086Z,2.50
2022-07-28T18:42:42.871Z,2.80
2022-07-28T18:45:14.817Z,2.50
2022-07-28T18:47:47.838Z,2.70
2022-07-28T18:50:30.361Z,3.20
2022-07-28T18:53:04.090Z,2.60
2022-07-28T18:55:36.176Z,3.70
2022-07-28T18:58:08.173Z,2.60
2022-07-28T19:00:40.240Z,4.00
2022-07-28T19:03:12.221Z,2.10
2022-07-28T19:05:46.101Z,3.60
2022-07-28T19:08:18.204Z,2.70
2022-07-28T19:10:50.546Z,2.60
2022-07-28T19:13:22.279Z,2.50
2022-07-28T19:15:54.800Z,2.40
2022-07-28T19:20:57.309Z,3.00
2022-07-28T19:23:30.427Z,2.80
2022-07-28T19:26:02.734Z,2.70
2022-07-28T19:31:10.406Z,3.00
2022-07-28T19:33:44.147Z,2.70
2022-07-28T19:36:16.645Z,3.10
2022-07-28T19:38:48.525Z,2.60
2022-07-28T19:41:20.250Z,2.80
2022-07-28T19:43:52.513Z,3.40
2022-07-28T19:46:26.192Z,2.90
2022-07-28T19:48:58.950Z,3.10
2022-07-28T19:51:30.857Z,2.90
2022-07-28T19:54:02.748Z,3.00
2022-07-28T19:56:34.982Z,3.40
2022-07-28T19:59:07.802Z,3.20
2022-07-28T20:01:46.026Z,3.00
2022-07-28T20:04:19.577Z,3.00
2022-07-28T20:06:55.646Z,3.60
2022-07-28T20:09:27.970Z,3.50
2022-07-28T20:11:59.903Z,3.50
2022-07-28T20:14:31.844Z,3.10
2022-07-28T20:17:03.902Z,3.10
2022-07-28T20:19:35.803Z,3.70
2022-07-28T20:22:07.991Z,3.30
2022-07-28T20:24:39.964Z,3.10
2022-07-28T20:27:11.873Z,3.70
2022-07-28T20:29:43.920Z,3.50
2022-07-28T20:32:16.201Z,3.60
2022-07-28T20:34:47.956Z,3.70
2022-07-28T20:37:36.958Z,3.30
2022-07-28T20:40:11.796Z,3.50
2022-07-28T20:42:44.370Z,3.70
2022-07-28T20:45:16.044Z,3.70
2022-07-28T20:47:47.828Z,3.00
2022-07-28T20:50:20.693Z,4.10
2022-07-28T20:55:22.981Z,3.70
2022-07-28T20:57:56.024Z,3.60
2022-07-28T21:00:29.147Z,3.30
2022-07-28T21:03:01.004Z,3.60
2022-07-28T21:05:35.898Z,3.90
2022-07-28T21:08:09.251Z,3.70
2022-07-28T21:10:48.210Z,4.60
2022-07-28T21:13:20.086Z,4.10
2022-07-28T21:15:51.972Z,3.50
2022-07-28T21:18:26.913Z,3.70
2022-07-28T21:20:58.693Z,3.90
2022-07-28T21:23:30.412Z,3.40
2022-07-28T21:26:02.168Z,3.50
2022-07-28T21:28:51.913Z,3.70
2022-07-28T21:31:24.820Z,3.90
2022-07-28T21:36:27.157Z,4.30
2022-07-28T21:38:58.878Z,3.60
2022-07-28T21:41:36.503Z,4.00
2022-07-28T21:44:08.972Z,4.30
2022-07-28T21:46:42.531Z,4.30
2022-07-28T21:49:14.791Z,3.80
2022-07-28T21:51:47.835Z,4.50
2022-07-28T21:54:20.490Z,4.30
2022-07-28T21:59:23.106Z,5.20
2022-07-28T22:01:55.943Z,4.60
2022-07-28T22:04:27.925Z,4.90
2022-07-28T22:06:59.718Z,4.60
2022-07-28T22:09:34.923Z,3.60
2022-07-28T22:12:11.624Z,4.10
2022-07-28T22:14:43.519Z,3.80
2022-07-28T22:17:15.245Z,3.80
2022-07-28T22:19:47.079Z,4.30
2022-07-28T22:22:18.926Z,3.60
2022-07-28T22:24:50.712Z,4.70
2022-07-28T22:27:22.815Z,3.90
2022-07-28T22:29:54.940Z,3.90
2022-07-28T22:32:28.987Z,3.90
2022-07-28T22:35:01.338Z,3.70
2022-07-28T22:37:33.114Z,3.60
2022-07-28T22:40:06.005Z,3.80
2022-07-28T22:42:37.871Z,4.00
2022-07-28T22:45:11.940Z,4.40
2022-07-28T22:47:43.714Z,4.20
2022-07-28T22:50:15.745Z,4.80
2022-07-28T22:52:48.237Z,3.70
2022-07-28T22:55:19.930Z,3.70
2022-07-28T22:57:51.654Z,3.90
2022-07-28T23:00:23.526Z,4.10
2022-07-28T23:05:26.432Z,4.20
2022-07-28T23:07:58.947Z,4.60
2022-07-28T23:10:31.677Z,4.00
2022-07-28T23:13:04.781Z,5.50
2022-07-28T23:15:39.727Z,3.70
2022-07-28T23:18:14.748Z,5.80
2022-07-28T23:20:47.186Z,4.30
2022-07-28T23:23:19.343Z,4.40
2022-07-28T23:25:51.104Z,4.50
2022-07-28T23:28:22.982Z,4.70
2022-07-28T23:30:55.183Z,4.10
2022-07-28T23:33:56.405Z,6.30
2022-07-28T23:36:26.898Z,4.80
2022-07-28T23:39:00.025Z,4.30
2022-07-28T23:41:31.850Z,5.00
2022-07-28T23:44:03.829Z,4.70
2022-07-28T23:46:36.669Z,5.40
2022-07-28T23:49:10.222Z,4.80
2022-07-28T23:51:47.982Z,4.80
2022-07-28T23:54:20.561Z,4.80
2022-07-28T23:56:56.496Z,4.40
2022-07-28T23:59:28.229Z,4.60
